createdAt,value
2022-09-26T00:01:28.100Z,24.40
2022-09-26T00:03:58.793Z,24.40
2022-09-26T00:06:28.680Z,24.70
2022-09-26T00:08:59.253Z,25.10
2022-09-26T00:11:31.565Z,24.80
2022-09-26T00:14:02.812Z,24.90
2022-09-26T00:16:30.797Z,25.10
2022-09-26T00:19:01.195Z,25.10
2022-09-26T00:21:31.249Z,24.80
2022-09-26T00:24:00.512Z,25.00
2022-09-26T00:26:30.256Z,25.00
2022-09-26T00:28:59.271Z,24.80
2022-09-26T00:31:29.173Z,24.80
2022-09-26T00:33:57.258Z,24.90
2022-09-26T00:36:36.958Z,24.90
2022-09-26T00:39:08.799Z,24.70
2022-09-26T00:41:37.921Z,24.80
2022-09-26T00:44:40.733Z,24.70
2022-09-26T00:47:19.865Z,24.10
2022-09-26T00:49:49.655Z,24.10
2022-09-26T00:52:22.888Z,24.30
2022-09-26T00:54:57.417Z,24.50
2022-09-26T00:57:32.068Z,24.60
2022-09-26T01:00:02.622Z,24.80
2022-09-26T01:02:30.851Z,24.80
2022-09-26T01:05:00.260Z,25.00
2022-09-26T01:07:30.110Z,25.10
2022-09-26T01:10:00.020Z,25.20
2022-09-26T01:12:28.063Z,24.30
2022-09-26T01:14:56.585Z,24.50
2022-09-26T01:17:26.007Z,24.70
2022-09-26T01:20:06.781Z,24.80
2022-09-26T01:23:18.966Z,25.00
2022-09-26T01:26:27.550Z,24.50
2022-09-26T01:29:16.870Z,24.40
2022-09-26T01:32:07.835Z,24.40
2022-09-26T01:34:43.022Z,24.60
2022-09-26T01:37:22.809Z,24.60
2022-09-26T01:39:58.364Z,24.70
2022-09-26T01:42:37.075Z,24.90
2022-09-26T01:45:10.820Z,25.00
2022-09-26T01:47:43.881Z,25.20
2022-09-26T01:50:22.449Z,25.20
2022-09-26T01:52:54.544Z,25.20
2022-09-26T01:55:26.932Z,25.30
2022-09-26T01:57:58.233Z,25.30
2022-09-26T02:00:26.573Z,25.30
2022-09-26T02:03:04.089Z,25.40
2022-09-26T02:05:36.066Z,25.10
2022-09-26T02:08:10.970Z,24.90
2022-09-26T02:10:44.513Z,25.10
2022-09-26T02:13:17.117Z,24.30
2022-09-26T02:15:48.639Z,24.50
2022-09-26T02:18:23.836Z,24.80
2022-09-26T02:20:57.869Z,25.00
2022-09-26T02:23:25.825Z,25.30
2022-09-26T02:25:54.998Z,25.40
2022-09-26T02:28:23.281Z,25.60
2022-09-26T02:30:53.312Z,25.70
2022-09-26T02:33:22.636Z,25.80
2022-09-26T02:35:55.399Z,25.80
2022-09-26T02:38:27.553Z,25.90
2022-09-26T02:41:18.857Z,25.90
2022-09-26T02:44:12.623Z,26.00
2022-09-26T02:46:57.414Z,25.90
2022-09-26T02:49:45.080Z,25.80
2022-09-26T02:52:24.054Z,25.80
2022-09-26T02:55:02.946Z,25.70
2022-09-26T02:57:38.185Z,25.50
2022-09-26T03:00:10.072Z,25.60
2022-09-26T03:02:42.502Z,25.70
2022-09-26T03:05:21.655Z,25.60
2022-09-26T03:07:56.404Z,25.60
2022-09-26T03:10:26.915Z,25.60
2022-09-26T03:12:58.580Z,25.60
2022-09-26T03:15:27.702Z,25.80
2022-09-26T03:17:57.663Z,25.70
2022-09-26T03:20:27.017Z,25.90
2022-09-26T03:22:57.199Z,25.90
2022-09-26T03:25:28.384Z,25.90
2022-09-26T03:28:05.877Z,25.90
2022-09-26T03:30:34.862Z,26.00
2022-09-26T03:33:22.775Z,25.80
2022-09-26T03:35:52.509Z,25.80
2022-09-26T03:38:22.231Z,25.80
2022-09-26T03:40:59.481Z,25.90
2022-09-26T03:43:46.113Z,26.00
2022-09-26T03:46:15.723Z,26.00
2022-09-26T03:48:44.112Z,26.10
2022-09-26T03:51:14.812Z,26.10
2022-09-26T03:53:47.083Z,26.10
2022-09-26T03:56:20.319Z,25.80
2022-09-26T03:58:49.828Z,25.50
2022-09-26T04:01:21.259Z,25.50
2022-09-26T04:03:51.255Z,25.70
2022-09-26T04:06:21.505Z,25.90
2022-09-26T04:08:52.420Z,25.90
2022-09-26T04:11:24.410Z,26.00
2022-09-26T04:13:54.103Z,26.00
2022-09-26T04:16:25.702Z,26.10
2022-09-26T04:19:00.140Z,26.20
2022-09-26T04:21:31.101Z,26.30
2022-09-26T04:24:00.352Z,26.30
2022-09-26T04:26:28.640Z,26.40
2022-09-26T04:28:59.023Z,26.50
2022-09-26T04:31:48.482Z,26.50
2022-09-26T04:34:26.269Z,26.60
2022-09-26T04:36:57.226Z,26.70
2022-09-26T04:39:25.818Z,26.70
2022-09-26T04:41:54.448Z,26.80
2022-09-26T04:44:22.689Z,26.80
2022-09-26T04:46:50.685Z,26.80
2022-09-26T04:49:21.610Z,26.80
2022-09-26T04:51:49.884Z,26.90
2022-09-26T04:54:19.274Z,26.90
2022-09-26T04:56:48.177Z,26.80
2022-09-26T04:59:16.234Z,26.70
2022-09-26T05:01:56.280Z,26.80
2022-09-26T05:04:36.353Z,26.80
2022-09-26T05:07:04.321Z,26.80
2022-09-26T05:09:36.236Z,26.80
2022-09-26T05:12:24.734Z,26.60
2022-09-26T05:14:53.991Z,26.60
2022-09-26T05:17:24.078Z,26.60
2022-09-26T05:19:53.448Z,26.60
2022-09-26T05:22:25.849Z,26.40
2022-09-26T05:25:16.490Z,26.20
2022-09-26T05:27:44.658Z,26.20
2022-09-26T05:30:13.587Z,26.30
2022-09-26T05:32:47.346Z,26.40
2022-09-26T05:35:17.247Z,26.50
2022-09-26T05:37:45.788Z,26.70
2022-09-26T05:40:32.622Z,26.70
2022-09-26T05:43:02.095Z,26.70
2022-09-26T05:45:31.777Z,26.80
2022-09-26T05:48:03.070Z,26.90
2022-09-26T05:50:31.236Z,27.00
2022-09-26T05:52:59.853Z,27.10
2022-09-26T05:55:31.014Z,27.10
2022-09-26T05:58:28.418Z,27.20
2022-09-26T06:01:17.191Z,27.30
2022-09-26T06:03:47.682Z,27.30
2022-09-26T06:06:24.889Z,27.40
2022-09-26T06:08:57.736Z,27.50
2022-09-26T06:11:45.618Z,27.50
2022-09-26T06:14:14.004Z,27.50
2022-09-26T06:16:44.747Z,27.50
2022-09-26T06:19:14.424Z,27.50
2022-09-26T06:21:44.167Z,27.60
2022-09-26T06:24:15.778Z,27.60
2022-09-26T06:26:45.664Z,27.40
2022-09-26T06:29:14.030Z,27.30
2022-09-26T06:31:43.249Z,27.30
2022-09-26T06:34:12.761Z,27.40
2022-09-26T06:37:01.739Z,27.50
2022-09-26T06:39:35.513Z,27.60
2022-09-26T06:42:05.642Z,27.60
2022-09-26T06:44:56.783Z,27.70
2022-09-26T06:47:27.132Z,27.80
2022-09-26T06:50:18.422Z,27.80
2022-09-26T06:52:52.615Z,27.90
2022-09-26T06:55:22.430Z,27.90
2022-09-26T06:57:53.942Z,27.90
2022-09-26T07:00:26.614Z,27.90
2022-09-26T07:03:01.767Z,28.00
2022-09-26T07:05:51.619Z,28.00
2022-09-26T07:08:28.861Z,28.00
2022-09-26T07:11:31.068Z,28.00
2022-09-26T07:14:02.368Z,28.10
2022-09-26T07:16:34.429Z,28.10
2022-09-26T07:19:21.065Z,28.20
2022-09-26T07:21:57.088Z,28.20
2022-09-26T07:24:32.291Z,28.20
2022-09-26T07:27:01.523Z,28.20
2022-09-26T07:29:30.927Z,28.20
2022-09-26T07:32:00.296Z,28.30
2022-09-26T07:34:48.021Z,28.30
2022-09-26T07:37:19.549Z,28.30
2022-09-26T07:39:52.790Z,28.10
2022-09-26T07:42:22.341Z,28.10
2022-09-26T07:45:21.991Z,28.00
2022-09-26T07:47:58.861Z,28.10
2022-09-26T07:51:03.514Z,28.30
2022-09-26T07:53:44.122Z,28.30
2022-09-26T07:56:34.327Z,28.30
2022-09-26T07:59:23.082Z,28.30
2022-09-26T08:02:25.897Z,28.20
2022-09-26T08:05:00.203Z,28.30
2022-09-26T08:07:29.513Z,28.10
2022-09-26T08:10:09.323Z,27.80
2022-09-26T08:12:56.723Z,27.90
2022-09-26T08:15:45.339Z,27.90
2022-09-26T08:18:23.517Z,28.10
2022-09-26T08:20:51.568Z,28.20
2022-09-26T08:23:19.564Z,28.30
2022-09-26T08:26:08.515Z,28.30
2022-09-26T08:28:43.967Z,28.30
2022-09-26T08:31:13.347Z,28.30
2022-09-26T08:33:44.101Z,28.30
2022-09-26T08:36:13.983Z,28.40
2022-09-26T08:38:55.017Z,28.30
2022-09-26T08:41:52.142Z,28.40
2022-09-26T08:45:24.503Z,28.40
2022-09-26T08:48:35.270Z,28.50
2022-09-26T08:51:29.025Z,28.60
2022-09-26T08:54:04.607Z,28.60
2022-09-26T08:56:37.838Z,28.70
2022-09-26T08:59:12.145Z,28.70
2022-09-26T09:01:46.659Z,28.70
2022-09-26T09:04:42.889Z,28.70
2022-09-26T09:07:22.376Z,28.80
2022-09-26T09:09:52.559Z,28.80
2022-09-26T09:12:59.220Z,28.70
2022-09-26T09:16:19.821Z,28.70
2022-09-26T09:19:17.609Z,28.80
2022-09-26T09:22:26.096Z,28.80
2022-09-26T09:25:03.284Z,28.80
2022-09-26T09:27:55.019Z,28.80
2022-09-26T09:30:26.289Z,28.80
2022-09-26T09:33:20.796Z,28.90
2022-09-26T09:35:57.482Z,28.80
2022-09-26T09:38:49.596Z,28.80
2022-09-26T09:41:48.190Z,28.80
2022-09-26T09:44:30.828Z,28.80
2022-09-26T09:47:03.735Z,28.80
2022-09-26T09:49:31.952Z,28.80
2022-09-26T09:52:11.631Z,28.80
2022-09-26T09:54:49.522Z,28.80
2022-09-26T09:57:43.624Z,28.90
2022-09-26T10:00:16.163Z,28.90
2022-09-26T10:03:01.120Z,28.90
2022-09-26T10:05:39.152Z,29.00
2022-09-26T10:08:13.087Z,29.10
2022-09-26T10:11:23.926Z,29.10
2022-09-26T10:14:03.265Z,28.90
2022-09-26T10:17:31.219Z,29.10
2022-09-26T10:20:35.634Z,29.10
2022-09-26T10:23:06.179Z,29.20
2022-09-26T10:25:34.241Z,29.20
2022-09-26T10:28:05.178Z,29.20
2022-09-26T10:30:48.673Z,29.30
2022-09-26T10:33:28.014Z,29.30
2022-09-26T10:36:19.600Z,29.30
2022-09-26T10:39:11.789Z,29.50
2022-09-26T10:41:43.054Z,29.60
2022-09-26T10:44:27.953Z,29.70
2022-09-26T10:47:19.218Z,29.60
2022-09-26T10:50:11.531Z,29.80
2022-09-26T10:53:08.402Z,29.90
2022-09-26T10:55:43.888Z,30.00
2022-09-26T10:58:18.705Z,29.80
2022-09-26T11:00:50.503Z,30.00
2022-09-26T11:03:23.133Z,30.10
2022-09-26T11:06:24.712Z,30.10
2022-09-26T11:09:02.903Z,30.00
2022-09-26T11:11:57.078Z,29.90
2022-09-26T11:14:30.014Z,29.60
2022-09-26T11:17:14.202Z,29.20
2022-09-26T11:19:49.931Z,29.50
2022-09-26T11:22:28.141Z,29.60
2022-09-26T11:25:10.269Z,29.70
2022-09-26T11:27:43.940Z,29.70
2022-09-26T11:30:20.667Z,29.40
2022-09-26T11:33:13.365Z,29.20
2022-09-26T11:36:23.968Z,28.60
2022-09-26T11:38:57.634Z,29.10
2022-09-26T11:41:45.649Z,28.50
2022-09-26T11:44:29.107Z,28.80
2022-09-26T11:47:49.512Z,28.60
2022-09-26T11:50:40.321Z,28.50
2022-09-26T11:53:35.912Z,29.00
2022-09-26T11:56:32.574Z,28.90
2022-09-26T11:59:11.044Z,29.50
2022-09-26T12:01:48.053Z,29.60
2022-09-26T12:04:32.763Z,29.40
2022-09-26T12:07:10.859Z,29.70
2022-09-26T12:09:55.439Z,28.80
2022-09-26T12:12:29.081Z,29.50
2022-09-26T12:15:12.778Z,29.80
2022-09-26T12:17:53.384Z,29.10
2022-09-26T12:20:31.304Z,29.00
2022-09-26T12:23:14.150Z,29.20
2022-09-26T12:25:58.291Z,29.30
2022-09-26T12:28:58.409Z,29.60
2022-09-26T12:31:40.264Z,29.40
2022-09-26T12:34:22.400Z,29.60
2022-09-26T12:37:03.929Z,29.20
2022-09-26T12:39:50.063Z,29.10
2022-09-26T12:42:38.673Z,29.60
2022-09-26T12:45:53.008Z,29.80
2022-09-26T12:48:32.791Z,29.00
2022-09-26T12:51:15.360Z,29.60
2022-09-26T12:53:59.841Z,29.70
2022-09-26T12:56:45.781Z,30.00
2022-09-26T12:59:28.715Z,29.70
2022-09-26T13:02:33.468Z,30.00
2022-09-26T13:05:37.120Z,30.00
2022-09-26T13:08:12.693Z,29.70
2022-09-26T13:10:54.713Z,30.10
2022-09-26T13:13:49.558Z,30.10
2022-09-26T13:16:27.541Z,30.20
2022-09-26T13:18:59.940Z,30.40
2022-09-26T13:21:40.484Z,30.30
2022-09-26T13:24:14.237Z,30.50
2022-09-26T13:26:46.801Z,30.70
2022-09-26T13:29:21.828Z,30.70
2022-09-26T13:31:55.877Z,30.90
2022-09-26T13:34:29.063Z,31.00
2022-09-26T13:36:58.974Z,30.90
2022-09-26T13:39:34.613Z,31.00
2022-09-26T13:42:08.466Z,31.10
2022-09-26T13:44:52.139Z,31.10
2022-09-26T13:47:27.276Z,30.70
2022-09-26T13:50:04.895Z,30.90
2022-09-26T13:52:52.812Z,30.40
2022-09-26T13:55:22.440Z,30.60
2022-09-26T13:58:04.077Z,30.80
2022-09-26T14:00:53.128Z,30.70
2022-09-26T14:04:11.419Z,30.90
2022-09-26T14:07:24.218Z,30.90
2022-09-26T14:09:56.161Z,30.50
2022-09-26T14:12:50.763Z,30.80
2022-09-26T14:15:24.076Z,31.00
2022-09-26T14:18:08.365Z,31.00
2022-09-26T14:20:50.971Z,31.30
2022-09-26T14:23:36.775Z,31.30
2022-09-26T14:26:10.391Z,31.00
2022-09-26T14:28:39.595Z,31.30
2022-09-26T14:31:33.396Z,31.40
2022-09-26T14:34:27.364Z,31.40
2022-09-26T14:36:59.570Z,31.40
2022-09-26T14:39:35.406Z,31.50
2022-09-26T14:42:15.808Z,31.50
2022-09-26T14:44:52.218Z,31.10
2022-09-26T14:47:22.544Z,31.10
2022-09-26T14:49:59.078Z,31.10
2022-09-26T14:52:27.576Z,31.20
2022-09-26T14:55:01.069Z,31.20
2022-09-26T14:57:32.792Z,31.40
2022-09-26T15:00:03.695Z,31.40
2022-09-26T15:02:40.189Z,31.30
2022-09-26T15:05:23.287Z,31.20
2022-09-26T15:07:52.823Z,31.10
2022-09-26T15:10:40.618Z,31.10
2022-09-26T15:13:40.905Z,31.00
2022-09-26T15:16:23.792Z,30.90
2022-09-26T15:18:54.169Z,30.80
2022-09-26T15:21:32.784Z,30.80
2022-09-26T15:24:03.767Z,30.80
2022-09-26T15:26:36.601Z,30.90
2022-09-26T15:29:07.666Z,30.70
2022-09-26T15:31:40.451Z,30.70
2022-09-26T15:34:17.303Z,30.60
2022-09-26T15:36:48.507Z,30.60
2022-09-26T15:39:36.836Z,30.60
2022-09-26T15:42:45.065Z,30.30
2022-09-26T15:45:29.908Z,29.50
2022-09-26T15:47:59.789Z,29.60
2022-09-26T15:50:36.866Z,29.80
2022-09-26T15:53:12.076Z,29.90
2022-09-26T15:55:46.524Z,30.00
2022-09-26T15:58:23.388Z,30.00
2022-09-26T16:00:52.892Z,30.10
2022-09-26T16:03:37.916Z,29.90
2022-09-26T16:06:17.868Z,29.90
2022-09-26T16:08:53.090Z,29.90
2022-09-26T16:11:22.547Z,30.00
2022-09-26T16:13:53.615Z,30.00
2022-09-26T16:16:29.697Z,29.70
2022-09-26T16:19:01.619Z,29.20
2022-09-26T16:21:34.152Z,29.20
2022-09-26T16:24:27.069Z,29.20
2022-09-26T16:26:56.009Z,29.20
2022-09-26T16:29:34.594Z,28.90
2022-09-26T16:32:04.667Z,28.90
2022-09-26T16:34:33.167Z,28.90
2022-09-26T16:37:01.253Z,28.90
2022-09-26T16:39:32.345Z,28.90
2022-09-26T16:42:05.593Z,29.00
2022-09-26T16:44:38.289Z,29.10
2022-09-26T16:47:09.009Z,28.90
2022-09-26T16:49:45.619Z,28.70
2022-09-26T16:52:28.111Z,28.70
2022-09-26T16:54:57.690Z,28.70
2022-09-26T16:57:28.892Z,28.70
2022-09-26T17:00:15.765Z,28.70
2022-09-26T17:02:44.255Z,28.70
2022-09-26T17:05:18.387Z,28.70
2022-09-26T17:07:47.145Z,28.80
2022-09-26T17:10:19.331Z,28.90
2022-09-26T17:12:50.823Z,28.80
2022-09-26T17:15:27.420Z,28.50
2022-09-26T17:17:56.880Z,28.30
2022-09-26T17:20:25.779Z,28.10
2022-09-26T17:22:54.650Z,27.80
2022-09-26T17:25:24.870Z,27.70
2022-09-26T17:27:59.825Z,26.90
2022-09-26T17:30:32.845Z,26.60
2022-09-26T17:33:04.358Z,27.00
2022-09-26T17:35:35.216Z,27.00
2022-09-26T17:38:07.588Z,27.20
2022-09-26T17:40:35.832Z,26.90
2022-09-26T17:43:06.453Z,27.00
2022-09-26T17:45:40.111Z,27.10
2022-09-26T17:48:13.621Z,27.40
2022-09-26T17:50:41.966Z,26.70
2022-09-26T17:53:20.473Z,26.60
2022-09-26T17:55:48.588Z,27.00
2022-09-26T17:58:20.428Z,27.00
2022-09-26T18:00:53.163Z,26.90
2022-09-26T18:03:25.075Z,26.90
2022-09-26T18:05:54.290Z,26.80
2022-09-26T18:08:29.613Z,26.90
2022-09-26T18:11:01.676Z,26.80
2022-09-26T18:13:36.470Z,26.80
2022-09-26T18:16:10.473Z,27.00
2022-09-26T18:18:38.872Z,27.00
2022-09-26T18:21:10.927Z,27.00
2022-09-26T18:23:44.317Z,26.60
2022-09-26T18:26:24.659Z,26.00
2022-09-26T18:28:52.764Z,26.30
2022-09-26T18:31:28.241Z,26.10
2022-09-26T18:33:59.851Z,26.10
2022-09-26T18:36:31.010Z,26.30
2022-09-26T18:38:59.254Z,26.30
2022-09-26T18:41:28.815Z,26.30
2022-09-26T18:44:02.921Z,26.50
2022-09-26T18:46:34.626Z,26.60
2022-09-26T18:49:06.193Z,26.80
2022-09-26T18:51:34.941Z,26.30
2022-09-26T18:54:07.145Z,26.30
2022-09-26T18:56:54.879Z,26.60
2022-09-26T18:59:25.661Z,26.80
2022-09-26T19:02:00.389Z,26.40
2022-09-26T19:04:30.462Z,26.60
2022-09-26T19:07:01.891Z,26.70
2022-09-26T19:09:33.586Z,26.40
2022-09-26T19:12:01.951Z,26.40
2022-09-26T19:14:31.515Z,26.50
2022-09-26T19:17:02.296Z,26.60
2022-09-26T19:19:32.482Z,26.60
2022-09-26T19:22:02.391Z,26.70
2022-09-26T19:24:35.015Z,26.60
2022-09-26T19:27:08.275Z,26.10
2022-09-26T19:29:45.020Z,25.70
2022-09-26T19:32:21.502Z,25.80
2022-09-26T19:34:53.430Z,25.70
2022-09-26T19:37:22.857Z,25.30
2022-09-26T19:39:51.988Z,25.50
2022-09-26T19:42:19.984Z,25.10
2022-09-26T19:44:50.188Z,25.30
2022-09-26T19:47:24.660Z,25.30
2022-09-26T19:49:55.456Z,24.80
2022-09-26T19:52:23.794Z,24.70
2022-09-26T19:54:51.961Z,24.60
2022-09-26T19:57:21.872Z,24.30
2022-09-26T19:59:50.599Z,23.90
2022-09-26T20:02:22.577Z,23.30
2022-09-26T20:04:52.580Z,23.30
2022-09-26T20:07:21.184Z,23.60
2022-09-26T20:09:50.819Z,23.70
2022-09-26T20:12:20.699Z,23.40
2022-09-26T20:14:48.630Z,23.90
2022-09-26T20:17:24.476Z,24.40
2022-09-26T20:19:58.364Z,24.40
2022-09-26T20:22:27.219Z,24.80
2022-09-26T20:24:56.013Z,25.10
2022-09-26T20:27:26.479Z,25.30
2022-09-26T20:30:12.146Z,25.20
2022-09-26T20:32:41.549Z,25.30
2022-09-26T20:35:12.620Z,25.10
2022-09-26T20:37:44.544Z,24.90
2022-09-26T20:40:19.839Z,25.00
2022-09-26T20:42:55.199Z,24.90
2022-09-26T20:45:29.622Z,24.60
2022-09-26T20:47:59.241Z,24.70
2022-09-26T20:50:34.021Z,25.00
2022-09-26T20:53:10.512Z,25.00
2022-09-26T20:55:43.236Z,25.20
2022-09-26T20:58:11.990Z,25.30
2022-09-26T21:00:40.125Z,24.90
2022-09-26T21:03:11.888Z,24.70
2022-09-26T21:05:40.163Z,24.80
2022-09-26T21:08:11.172Z,25.00
2022-09-26T21:10:39.462Z,24.90
2022-09-26T21:13:07.444Z,24.30
2022-09-26T21:15:41.375Z,23.90
2022-09-26T21:18:24.210Z,24.10
2022-09-26T21:20:53.439Z,24.40
2022-09-26T21:23:22.425Z,24.60
2022-09-26T21:25:50.391Z,24.90
2022-09-26T21:28:28.355Z,25.30
2022-09-26T21:30:59.891Z,25.50
2022-09-26T21:33:30.549Z,25.10
2022-09-26T21:35:59.130Z,25.20
2022-09-26T21:38:27.278Z,24.80
2022-09-26T21:40:58.960Z,24.90
2022-09-26T21:43:30.431Z,25.20
2022-09-26T21:46:00.567Z,25.30
2022-09-26T21:48:29.856Z,25.40
2022-09-26T21:51:00.142Z,25.50
2022-09-26T21:53:32.550Z,25.50
2022-09-26T21:56:07.777Z,25.50
2022-09-26T21:58:39.199Z,25.50
2022-09-26T22:01:07.575Z,25.40
2022-09-26T22:03:37.218Z,25.40
2022-09-26T22:06:10.154Z,25.30
2022-09-26T22:08:38.560Z,25.00
2022-09-26T22:11:08.095Z,24.90
2022-09-26T22:13:37.090Z,25.00
2022-09-26T22:16:06.446Z,25.00
2022-09-26T22:18:36.666Z,24.90
2022-09-26T22:21:04.795Z,24.90
2022-09-26T22:23:34.605Z,25.00
2022-09-26T22:26:03.061Z,25.00
2022-09-26T22:28:31.395Z,24.90
2022-09-26T22:31:01.654Z,24.60
2022-09-26T22:33:29.992Z,24.20
2022-09-26T22:35:59.229Z,23.80
2022-09-26T22:38:27.651Z,24.10
2022-09-26T22:41:00.128Z,24.00
2022-09-26T22:43:28.865Z,24.10
2022-09-26T22:46:01.786Z,23.90
2022-09-26T22:48:31.797Z,24.20
2022-09-26T22:51:01.525Z,24.40
2022-09-26T22:53:31.700Z,24.50
2022-09-26T22:56:05.100Z,24.60
2022-09-26T22:58:36.501Z,24.60
2022-09-26T23:01:05.808Z,24.70
2022-09-26T23:03:34.137Z,24.70
2022-09-26T23:06:03.766Z,24.80
2022-09-26T23:08:33.129Z,24.90
2022-09-26T23:11:02.078Z,24.90
2022-09-26T23:13:31.410Z,24.70
2022-09-26T23:16:05.075Z,24.20
2022-09-26T23:18:34.626Z,23.90
2022-09-26T23:21:08.023Z,23.90
2022-09-26T23:23:36.552Z,23.90
2022-09-26T23:26:05.826Z,24.20
2022-09-26T23:28:34.759Z,24.40
2022-09-26T23:31:07.641Z,24.50
2022-09-26T23:33:35.880Z,24.60
2022-09-26T23:36:04.544Z,24.80
2022-09-26T23:38:36.297Z,24.90
2022-09-26T23:41:05.030Z,24.90
2022-09-26T23:43:33.065Z,24.70
2022-09-26T23:46:01.690Z,24.60
2022-09-26T23:48:29.984Z,24.40
2022-09-26T23:50:58.121Z,24.10
2022-09-26T23:53:26.190Z,24.20
2022-09-26T23:56:03.380Z,24.20
2022-09-26T23:58:31.498Z,24.30
